Kliftrans — PCDB — position and weather

sailwx.info

Track history (hours):
 
Tides and Currents Weather Stations Pressure Air Temp Water Temp Dewpoint Dewpoint Depression Visibility Wind Speed Wind Dir Waves Ship Positions

Kliftrans

Last reported at 2017-Feb-28 03:33 UTC. Time now 2017-Feb-28 03:34 UTC.
Position N 51°20' E 003°49'.

Length 32 m; draft 6 m.

Type: Tug. MMSI: 244890607.

Date/timePositionNaut miles runAvg speedWind from/ knotsBaromVisibWave heightAir tempDewpointWater temp
2017-Feb-28 03:33N 51°20' E 003°49'1 0.7
2017-Feb-28 02:33N 51°21' E 003°49'2 1.9
2017-Feb-28 01:33N 51°21' E 003°46'2 2.2
2017-Feb-28 00:33N 51°20' E 003°49'0 0.0
2017-Feb-27 23:33N 51°20' E 003°49'0 0.0
2017-Feb-27 22:33N 51°20' E 003°49'0 0.0
2017-Feb-27 21:33N 51°20' E 003°49'0 0.0
2017-Feb-27 20:33N 51°20' E 003°49'0 0.0
2017-Feb-27 19:33N 51°20' E 003°49'0 0.0
2017-Feb-27 18:33N 51°20' E 003°49'0 0.0
2017-Feb-27 17:33N 51°20' E 003°49'0 0.0
2017-Feb-27 16:33N 51°20' E 003°49'0 0.0
2017-Feb-27 15:33N 51°20' E 003°49'0 0.0
2017-Feb-27 14:33N 51°20' E 003°49'0 0.0
2017-Feb-27 13:33N 51°20' E 003°49'0 0.0
2017-Feb-27 12:33N 51°20' E 003°49'0 0.0
2017-Feb-27 11:33N 51°20' E 003°49'0 0.0
2017-Feb-27 10:33N 51°20' E 003°49'0 0.0
2017-Feb-27 09:32N 51°20' E 003°49'0 0.0
2017-Feb-27 08:33N 51°20' E 003°49'0 0.0
2017-Feb-27 07:33N 51°20' E 003°49'0 0.0
2017-Feb-27 06:32N 51°20' E 003°49'0 0.0
2017-Feb-27 05:33N 51°20' E 003°49'0 0.0
2017-Feb-27 04:33N 51°20' E 003°49'0 0.0
2017-Feb-27 03:33N 51°20' E 003°49'0 0.0
2017-Feb-27 02:33N 51°20' E 003°49'0 0.0
2017-Feb-27 01:33N 51°20' E 003°49'0 0.0
2017-Feb-27 00:33N 51°20' E 003°49'0 0.0
2017-Feb-26 23:33N 51°20' E 003°49'0 0.0
2017-Feb-26 22:33N 51°20' E 003°49'0 0.0
2017-Feb-26 21:33N 51°20' E 003°49'1 0.5
2017-Feb-26 20:33N 51°20' E 003°49'0 0.2
2017-Feb-26 19:34N 51°20' E 003°49'0 0.0
2017-Feb-26 18:34N 51°20' E 003°49'0 0.4
2017-Feb-26 17:34N 51°19' E 003°49'8 8.4
2017-Feb-26 16:34N 51°11' E 003°48'2 1.6
2017-Feb-26 15:33N 51°12' E 003°48'5 4.8
2017-Feb-26 14:33N 51°17' E 003°50'3 3.0
2017-Feb-26 13:33N 51°20' E 003°49'3 3.4
2017-Feb-26 12:33N 51°22' E 003°45'3 3.1
2017-Feb-26 11:33N 51°20' E 003°49'0 0.0
2017-Feb-26 10:33N 51°20' E 003°49'0 0.0
2017-Feb-26 09:33N 51°20' E 003°49'0 0.0
2017-Feb-26 08:33N 51°20' E 003°49'0 0.0
2017-Feb-26 07:33N 51°20' E 003°49'0 0.0
2017-Feb-26 06:33N 51°20' E 003°49'0 0.0
2017-Feb-26 05:33N 51°20' E 003°49'0 0.0
2017-Feb-26 04:33N 51°20' E 003°49'0 0.0
2017-Feb-26 03:33N 51°20' E 003°49'0 0.0
2017-Feb-26 02:33N 51°20' E 003°49'0 0.0
2017-Feb-26 01:33N 51°20' E 003°49'2 1.8
2017-Feb-26 00:33N 51°20' E 003°46'2 1.8
2017-Feb-25 23:33N 51°20' E 003°49'0 0.0
2017-Feb-25 22:33N 51°20' E 003°49'0 0.0
2017-Feb-25 21:33N 51°20' E 003°49'0 0.0
2017-Feb-25 20:33N 51°20' E 003°49'0 0.0
2017-Feb-25 19:33N 51°20' E 003°49'0 0.0
2017-Feb-25 18:33N 51°20' E 003°49'0 0.0
2017-Feb-25 17:33N 51°20' E 003°49'0 0.0
2017-Feb-25 16:33N 51°20' E 003°49'0 0.0
2017-Feb-25 15:33N 51°20' E 003°49'0 0.0
2017-Feb-25 14:33N 51°20' E 003°49'0 0.0
2017-Feb-25 13:33N 51°20' E 003°49'0 0.0
2017-Feb-25 12:33N 51°20' E 003°49'0 0.0
2017-Feb-25 11:33N 51°20' E 003°49'0 0.0
2017-Feb-25 10:33N 51°20' E 003°49'0 0.0
2017-Feb-25 09:33N 51°20' E 003°49'0 0.0
2017-Feb-25 08:33N 51°20' E 003°49'0 0.0
2017-Feb-25 07:33N 51°20' E 003°49'3 2.9
2017-Feb-25 06:33N 51°18' E 003°50'2 1.9
2017-Feb-25 05:33N 51°16' E 003°50'4 3.5
2017-Feb-25 04:34N 51°19' E 003°49'1 1.3
2017-Feb-25 03:34N 51°20' E 003°49'3 3.3
2017-Feb-25 02:33N 51°22' E 003°44'2 1.9
2017-Feb-25 01:34N 51°21' E 003°46'4 4.3
2017-Feb-25 00:33N 51°24' E 003°42'4 3.5
2017-Feb-24 23:33N 51°28' E 003°40'0 0.0
2017-Feb-24 22:33N 51°28' E 003°40'0 0.0
2017-Feb-24 21:33N 51°28' E 003°40'0 0.0
2017-Feb-24 20:33N 51°28' E 003°40'0 0.0
2017-Feb-24 19:33N 51°28' E 003°40'0 0.0
2017-Feb-24 18:33N 51°28' E 003°40'0 0.0
2017-Feb-24 17:33N 51°28' E 003°40'0 0.0
2017-Feb-24 16:33N 51°28' E 003°40'2 1.7
2017-Feb-24 15:33N 51°28' E 003°43'1 1.1
2017-Feb-24 14:33N 51°28' E 003°42'1 0.7
2017-Feb-24 13:33N 51°28' E 003°40'0 0.0
2017-Feb-24 12:33N 51°28' E 003°40'0 0.0
2017-Feb-24 11:31N 51°28' E 003°40'0 0.0
2017-Feb-24 10:33N 51°28' E 003°40'4 3.6
2017-Feb-24 09:33N 51°25' E 003°44'3 3.3
2017-Feb-24 08:33N 51°28' E 003°42'1 0.7
2017-Feb-24 07:33N 51°28' E 003°40'0 0.0
2017-Feb-24 06:33N 51°28' E 003°40'0 0.0
2017-Feb-24 05:33N 51°28' E 003°40'0 0.0
2017-Feb-24 04:33N 51°28' E 003°40'0 0.0
2017-Feb-24 03:33N 51°28' E 003°40'0 0.0
2017-Feb-24 02:33N 51°28' E 003°40'0 0.0
2017-Feb-24 01:33N 51°28' E 003°40'0 0.0
2017-Feb-24 00:33N 51°28' E 003°40'0 0.0
2017-Feb-23 23:33N 51°28' E 003°40'0 0.0
2017-Feb-23 22:33N 51°28' E 003°40'1 0.5
2017-Feb-23 21:33N 51°28' E 003°41'1 0.8
2017-Feb-23 20:33N 51°27' E 003°40'0 0.0
2017-Feb-23 19:33N 51°27' E 003°40'0 0.0
2017-Feb-23 18:33N 51°27' E 003°40'0 0.0
2017-Feb-23 17:33N 51°27' E 003°40'0 0.1
2017-Feb-23 16:33N 51°27' E 003°40'2 1.6
2017-Feb-23 15:33N 51°28' E 003°42'5 5.1
2017-Feb-23 14:33N 51°23' E 003°44'3 2.6
2017-Feb-23 13:33N 51°21' E 003°46'2 1.9
2017-Feb-23 12:34N 51°20' E 003°49'0 0.0
2017-Feb-23 11:33N 51°20' E 003°49'5 4.9
2017-Feb-23 10:33N 51°23' E 003°43'6 5.5
2017-Feb-23 09:33N 51°27' E 003°36'3 2.6
2017-Feb-23 08:33N 51°25' E 003°39'6 6.1
2017-Feb-23 07:33N 51°21' E 003°46'8 8.1
2017-Feb-23 06:33N 51°26' E 003°36'1 0.6
2017-Feb-23 05:33N 51°27' E 003°36'0 0.0
2017-Feb-23 04:33N 51°27' E 003°36'0 0.0
2017-Feb-23 03:33N 51°27' E 003°36'0 0.0
2017-Feb-23 02:33N 51°27' E 003°36'0 0.0
2017-Feb-23 01:33N 51°27' E 003°36'0 0.0
2017-Feb-23 00:33N 51°27' E 003°36'0 0.0
2017-Feb-22 23:33N 51°27' E 003°36'8 8.5
2017-Feb-22 22:33N 51°22' E 003°47'2 1.9
2017-Feb-22 21:33N 51°20' E 003°49'0 0.0
2017-Feb-22 20:33N 51°20' E 003°49'0 0.0
2017-Feb-22 19:33N 51°20' E 003°49'0 0.0
2017-Feb-22 18:33N 51°20' E 003°49'0 0.0
2017-Feb-22 17:33N 51°20' E 003°49'0 0.0
2017-Feb-22 16:33N 51°20' E 003°49'0 0.0
2017-Feb-22 15:33N 51°20' E 003°49'0 0.0
2017-Feb-22 14:33N 51°20' E 003°49'0 0.0
2017-Feb-22 13:33N 51°20' E 003°49'0 0.0
2017-Feb-22 12:33N 51°20' E 003°49'0 0.0
2017-Feb-22 11:33N 51°20' E 003°49'0 0.0
2017-Feb-22 10:33N 51°20' E 003°49'0 0.0
2017-Feb-22 09:33N 51°20' E 003°49'5 5.3
2017-Feb-22 08:33N 51°24' E 003°42'3 2.9
2017-Feb-22 07:33N 51°23' E 003°47'1 1.3
2017-Feb-22 06:33N 51°24' E 003°45'0 0.0
2017-Feb-22 05:33N 51°24' E 003°45'0 0.1
2017-Feb-22 04:30N 51°24' E 003°45'0 0.0
2017-Feb-22 03:33N 51°24' E 003°45'0 0.0
2017-Feb-22 02:33N 51°24' E 003°45'0 0.0
2017-Feb-22 01:32N 51°24' E 003°45'0 0.0
2017-Feb-22 00:33N 51°24' E 003°45'0 0.0
2017-Feb-21 23:33N 51°24' E 003°45'0 0.2
2017-Feb-21 22:33N 51°24' E 003°45'4 4.3
2017-Feb-21 21:33N 51°20' E 003°49'0 0.0
2017-Feb-21 20:33N 51°20' E 003°49'0 0.0
2017-Feb-21 19:34N 51°20' E 003°49'0 0.0
2017-Feb-21 18:34N 51°20' E 003°49'0 0.0
2017-Feb-21 17:33N 51°20' E 003°49'0 0.0
2017-Feb-21 16:33N 51°20' E 003°49'0 0.0
2017-Feb-21 15:33N 51°20' E 003°49'0 0.0
2017-Feb-21 14:33N 51°20' E 003°49'0 0.0
2017-Feb-21 13:34N 51°20' E 003°49'0 0.0
2017-Feb-21 12:33N 51°20' E 003°49'0 0.0
2017-Feb-21 11:33N 51°20' E 003°49'0 0.0
2017-Feb-21 10:33N 51°20' E 003°49'0 0.0
2017-Feb-21 09:33N 51°20' E 003°49'0 0.0
2017-Feb-21 08:33N 51°20' E 003°49'0 0.0
2017-Feb-21 07:33N 51°20' E 003°49'0 0.0
2017-Feb-21 06:33N 51°20' E 003°49'0 0.0
2017-Feb-21 05:33N 51°20' E 003°49'1 0.6
2017-Feb-21 04:33N 51°20' E 003°49'4 4.3
2017-Feb-21 03:33N 51°15' E 003°50'6 5.9
2017-Feb-21 02:34N 51°10' E 003°47'1 0.5
2017-Feb-21 01:34N 51°09' E 003°47'0 0.0
2017-Feb-21 00:34N 51°09' E 003°47'0 0.0
2017-Feb-20 23:34N 51°09' E 003°47'0 0.0
2017-Feb-20 22:33N 51°09' E 003°47'0 0.0
2017-Feb-20 21:33N 51°09' E 003°47'0 0.0
2017-Feb-20 20:33N 51°09' E 003°47'0 0.0
2017-Feb-20 19:34N 51°09' E 003°47'5 4.6
2017-Feb-20 18:34N 51°14' E 003°48'6 6.4
2017-Feb-20 17:34N 51°20' E 003°49'3 2.9
2017-Feb-20 16:34N 51°22' E 003°45'7 6.7
2017-Feb-20 15:34N 51°28' E 003°40'0 0.0
2017-Feb-20 14:34N 51°28' E 003°40'0 0.0
2017-Feb-20 13:33N 51°28' E 003°40'0 0.0
2017-Feb-20 12:33N 51°28' E 003°40'0 0.0
2017-Feb-20 11:33N 51°28' E 003°40'0 0.0
2017-Feb-20 10:33N 51°28' E 003°40'0 0.0
2017-Feb-20 09:34N 51°28' E 003°40'0 0.0
2017-Feb-20 08:34N 51°28' E 003°40'0 0.0
2017-Feb-20 07:34N 51°28' E 003°40'0 0.0
2017-Feb-20 06:34N 51°28' E 003°40'0 0.0
2017-Feb-20 05:34N 51°28' E 003°40'0 0.0
2017-Feb-20 04:34N 51°28' E 003°40'0 0.0
2017-Feb-20 03:34N 51°28' E 003°40'0 0.0
2017-Feb-20 02:34N 51°28' E 003°40'0 0.0
2017-Feb-20 01:34N 51°28' E 003°40'0 0.4
2017-Feb-20 00:33N 51°27' E 003°41'0 0.4
2017-Feb-19 23:33N 51°28' E 003°40'0 0.0
2017-Feb-19 22:34N 51°28' E 003°40'0 0.0
2017-Feb-19 21:33N 51°28' E 003°40'0 0.0
2017-Feb-19 20:34N 51°28' E 003°40'0 0.0
2017-Feb-19 19:34N 51°28' E 003°40'0 0.0
2017-Feb-19 18:33N 51°28' E 003°40'0 0.0
2017-Feb-19 17:33N 51°28' E 003°40'0 0.0
2017-Feb-19 16:33N 51°28' E 003°40'0 0.0
2017-Feb-19 15:33N 51°28' E 003°40'0 0.0
2017-Feb-19 14:33N 51°28' E 003°40'1 1.4
2017-Feb-19 13:33N 51°28' E 003°42'1 1.1
2017-Feb-19 12:33N 51°28' E 003°41'1 1.2
2017-Feb-19 11:32N 51°27' E 003°43'2 1.9
2017-Feb-19 10:33N 51°28' E 003°40'0 0.0
2017-Feb-19 09:33N 51°28' E 003°40'0 0.0
2017-Feb-19 08:33N 51°28' E 003°40'0 0.0
2017-Feb-19 07:34N 51°28' E 003°40'0 0.0
2017-Feb-19 06:33N 51°28' E 003°40'0 0.0
2017-Feb-19 05:33N 51°28' E 003°40'0 0.0
2017-Feb-19 04:34N 51°28' E 003°40'0 0.0
2017-Feb-19 03:33N 51°28' E 003°40'0 0.0
2017-Feb-19 02:32N 51°28' E 003°40'0 0.0
2017-Feb-19 01:33N 51°28' E 003°40'0 0.0
2017-Feb-19 00:29N 51°28' E 003°40'0 0.0
2017-Feb-18 23:30N 51°28' E 003°40'0 0.0
2017-Feb-18 22:33N 51°28' E 003°40'0 0.0
2017-Feb-18 21:33N 51°28' E 003°40'0 0.0
2017-Feb-18 20:33N 51°28' E 003°40'0 0.0
2017-Feb-18 19:33N 51°28' E 003°40'0 0.0
2017-Feb-18 18:34N 51°28' E 003°40'0 0.4
2017-Feb-18 17:34N 51°27' E 003°41'0 0.4
2017-Feb-18 16:33N 51°28' E 003°40'0 0.0
2017-Feb-18 15:34N 51°28' E 003°40'0 0.0
2017-Feb-18 14:34N 51°28' E 003°40'0 0.0
2017-Feb-18 13:31N 51°28' E 003°40'0 0.0
2017-Feb-18 12:32N 51°28' E 003°40'0 0.0
2017-Feb-18 11:33N 51°28' E 003°40'0 0.0
2017-Feb-18 10:33N 51°28' E 003°40'0 0.0
2017-Feb-18 09:33N 51°28' E 003°40'0 0.0
2017-Feb-18 08:33N 51°28' E 003°40'0 0.0
2017-Feb-18 07:33N 51°28' E 003°40'0 0.0
2017-Feb-18 06:33N 51°28' E 003°40'0 0.0
2017-Feb-18 05:33N 51°28' E 003°40'0 0.0
2017-Feb-18 04:33N 51°28' E 003°40'0 0.0
2017-Feb-18 03:33N 51°28' E 003°40'  
Track history (hours):
 
Tides and Currents Weather Stations Pressure Air Temp Water Temp Dewpoint Dewpoint Depression Visibility Wind Speed Wind Dir Waves Ship Positions

Kliftrans

Last reported at 2017-Feb-28 03:33 UTC. Time now 2017-Feb-28 03:34 UTC.
Position N 51°20' E 003°49'.

Length 32 m; draft 6 m.

Type: Tug. MMSI: 244890607.

Date/timePositionNaut miles runAvg speedWind from/ knotsBaromVisibWave heightAir tempDewpointWater temp
2017-Feb-28 03:33N 51°20' E 003°49'1 0.7
2017-Feb-28 02:33N 51°21' E 003°49'2 1.9
2017-Feb-28 01:33N 51°21' E 003°46'2 2.2
2017-Feb-28 00:33N 51°20' E 003°49'0 0.0
2017-Feb-27 23:33N 51°20' E 003°49'0 0.0
2017-Feb-27 22:33N 51°20' E 003°49'0 0.0
2017-Feb-27 21:33N 51°20' E 003°49'0 0.0
2017-Feb-27 20:33N 51°20' E 003°49'0 0.0
2017-Feb-27 19:33N 51°20' E 003°49'0 0.0
2017-Feb-27 18:33N 51°20' E 003°49'0 0.0
2017-Feb-27 17:33N 51°20' E 003°49'0 0.0
2017-Feb-27 16:33N 51°20' E 003°49'0 0.0
2017-Feb-27 15:33N 51°20' E 003°49'0 0.0
2017-Feb-27 14:33N 51°20' E 003°49'0 0.0
2017-Feb-27 13:33N 51°20' E 003°49'0 0.0
2017-Feb-27 12:33N 51°20' E 003°49'0 0.0
2017-Feb-27 11:33N 51°20' E 003°49'0 0.0
2017-Feb-27 10:33N 51°20' E 003°49'0 0.0
2017-Feb-27 09:32N 51°20' E 003°49'0 0.0
2017-Feb-27 08:33N 51°20' E 003°49'0 0.0
2017-Feb-27 07:33N 51°20' E 003°49'0 0.0
2017-Feb-27 06:32N 51°20' E 003°49'0 0.0
2017-Feb-27 05:33N 51°20' E 003°49'0 0.0
2017-Feb-27 04:33N 51°20' E 003°49'0 0.0
2017-Feb-27 03:33N 51°20' E 003°49'0 0.0
2017-Feb-27 02:33N 51°20' E 003°49'0 0.0
2017-Feb-27 01:33N 51°20' E 003°49'0 0.0
2017-Feb-27 00:33N 51°20' E 003°49'0 0.0
2017-Feb-26 23:33N 51°20' E 003°49'0 0.0
2017-Feb-26 22:33N 51°20' E 003°49'0 0.0
2017-Feb-26 21:33N 51°20' E 003°49'1 0.5
2017-Feb-26 20:33N 51°20' E 003°49'0 0.2
2017-Feb-26 19:34N 51°20' E 003°49'0 0.0
2017-Feb-26 18:34N 51°20' E 003°49'0 0.4
2017-Feb-26 17:34N 51°19' E 003°49'8 8.4
2017-Feb-26 16:34N 51°11' E 003°48'2 1.6
2017-Feb-26 15:33N 51°12' E 003°48'5 4.8
2017-Feb-26 14:33N 51°17' E 003°50'3 3.0
2017-Feb-26 13:33N 51°20' E 003°49'3 3.4
2017-Feb-26 12:33N 51°22' E 003°45'3 3.1
2017-Feb-26 11:33N 51°20' E 003°49'0 0.0
2017-Feb-26 10:33N 51°20' E 003°49'0 0.0
2017-Feb-26 09:33N 51°20' E 003°49'0 0.0
2017-Feb-26 08:33N 51°20' E 003°49'0 0.0
2017-Feb-26 07:33N 51°20' E 003°49'0 0.0
2017-Feb-26 06:33N 51°20' E 003°49'0 0.0
2017-Feb-26 05:33N 51°20' E 003°49'0 0.0
2017-Feb-26 04:33N 51°20' E 003°49'0 0.0
2017-Feb-26 03:33N 51°20' E 003°49'0 0.0
2017-Feb-26 02:33N 51°20' E 003°49'0 0.0
2017-Feb-26 01:33N 51°20' E 003°49'2 1.8
2017-Feb-26 00:33N 51°20' E 003°46'2 1.8
2017-Feb-25 23:33N 51°20' E 003°49'0 0.0
2017-Feb-25 22:33N 51°20' E 003°49'0 0.0
2017-Feb-25 21:33N 51°20' E 003°49'0 0.0
2017-Feb-25 20:33N 51°20' E 003°49'0 0.0
2017-Feb-25 19:33N 51°20' E 003°49'0 0.0
2017-Feb-25 18:33N 51°20' E 003°49'0 0.0
2017-Feb-25 17:33N 51°20' E 003°49'0 0.0
2017-Feb-25 16:33N 51°20' E 003°49'0 0.0
2017-Feb-25 15:33N 51°20' E 003°49'0 0.0
2017-Feb-25 14:33N 51°20' E 003°49'0 0.0
2017-Feb-25 13:33N 51°20' E 003°49'0 0.0
2017-Feb-25 12:33N 51°20' E 003°49'0 0.0
2017-Feb-25 11:33N 51°20' E 003°49'0 0.0
2017-Feb-25 10:33N 51°20' E 003°49'0 0.0
2017-Feb-25 09:33N 51°20' E 003°49'0 0.0
2017-Feb-25 08:33N 51°20' E 003°49'0 0.0
2017-Feb-25 07:33N 51°20' E 003°49'3 2.9
2017-Feb-25 06:33N 51°18' E 003°50'2 1.9
2017-Feb-25 05:33N 51°16' E 003°50'4 3.5
2017-Feb-25 04:34N 51°19' E 003°49'1 1.3
2017-Feb-25 03:34N 51°20' E 003°49'3 3.3
2017-Feb-25 02:33N 51°22' E 003°44'2 1.9
2017-Feb-25 01:34N 51°21' E 003°46'4 4.3
2017-Feb-25 00:33N 51°24' E 003°42'4 3.5
2017-Feb-24 23:33N 51°28' E 003°40'0 0.0
2017-Feb-24 22:33N 51°28' E 003°40'0 0.0
2017-Feb-24 21:33N 51°28' E 003°40'0 0.0
2017-Feb-24 20:33N 51°28' E 003°40'0 0.0
2017-Feb-24 19:33N 51°28' E 003°40'0 0.0
2017-Feb-24 18:33N 51°28' E 003°40'0 0.0
2017-Feb-24 17:33N 51°28' E 003°40'0 0.0
2017-Feb-24 16:33N 51°28' E 003°40'2 1.7
2017-Feb-24 15:33N 51°28' E 003°43'1 1.1
2017-Feb-24 14:33N 51°28' E 003°42'1 0.7
2017-Feb-24 13:33N 51°28' E 003°40'0 0.0
2017-Feb-24 12:33N 51°28' E 003°40'0 0.0
2017-Feb-24 11:31N 51°28' E 003°40'0 0.0
2017-Feb-24 10:33N 51°28' E 003°40'4 3.6
2017-Feb-24 09:33N 51°25' E 003°44'3 3.3
2017-Feb-24 08:33N 51°28' E 003°42'1 0.7
2017-Feb-24 07:33N 51°28' E 003°40'0 0.0
2017-Feb-24 06:33N 51°28' E 003°40'0 0.0
2017-Feb-24 05:33N 51°28' E 003°40'0 0.0
2017-Feb-24 04:33N 51°28' E 003°40'0 0.0
2017-Feb-24 03:33N 51°28' E 003°40'0 0.0
2017-Feb-24 02:33N 51°28' E 003°40'0 0.0
2017-Feb-24 01:33N 51°28' E 003°40'0 0.0
2017-Feb-24 00:33N 51°28' E 003°40'0 0.0
2017-Feb-23 23:33N 51°28' E 003°40'0 0.0
2017-Feb-23 22:33N 51°28' E 003°40'1 0.5
2017-Feb-23 21:33N 51°28' E 003°41'1 0.8
2017-Feb-23 20:33N 51°27' E 003°40'0 0.0
2017-Feb-23 19:33N 51°27' E 003°40'0 0.0
2017-Feb-23 18:33N 51°27' E 003°40'0 0.0
2017-Feb-23 17:33N 51°27' E 003°40'0 0.1
2017-Feb-23 16:33N 51°27' E 003°40'2 1.6
2017-Feb-23 15:33N 51°28' E 003°42'5 5.1
2017-Feb-23 14:33N 51°23' E 003°44'3 2.6
2017-Feb-23 13:33N 51°21' E 003°46'2 1.9
2017-Feb-23 12:34N 51°20' E 003°49'0 0.0
2017-Feb-23 11:33N 51°20' E 003°49'5 4.9
2017-Feb-23 10:33N 51°23' E 003°43'6 5.5
2017-Feb-23 09:33N 51°27' E 003°36'3 2.6
2017-Feb-23 08:33N 51°25' E 003°39'6 6.1
2017-Feb-23 07:33N 51°21' E 003°46'8 8.1
2017-Feb-23 06:33N 51°26' E 003°36'1 0.6
2017-Feb-23 05:33N 51°27' E 003°36'0 0.0
2017-Feb-23 04:33N 51°27' E 003°36'0 0.0
2017-Feb-23 03:33N 51°27' E 003°36'0 0.0
2017-Feb-23 02:33N 51°27' E 003°36'0 0.0
2017-Feb-23 01:33N 51°27' E 003°36'0 0.0
2017-Feb-23 00:33N 51°27' E 003°36'0 0.0
2017-Feb-22 23:33N 51°27' E 003°36'8 8.5
2017-Feb-22 22:33N 51°22' E 003°47'2 1.9
2017-Feb-22 21:33N 51°20' E 003°49'0 0.0
2017-Feb-22 20:33N 51°20' E 003°49'0 0.0
2017-Feb-22 19:33N 51°20' E 003°49'0 0.0
2017-Feb-22 18:33N 51°20' E 003°49'0 0.0
2017-Feb-22 17:33N 51°20' E 003°49'0 0.0
2017-Feb-22 16:33N 51°20' E 003°49'0 0.0
2017-Feb-22 15:33N 51°20' E 003°49'0 0.0
2017-Feb-22 14:33N 51°20' E 003°49'0 0.0
2017-Feb-22 13:33N 51°20' E 003°49'0 0.0
2017-Feb-22 12:33N 51°20' E 003°49'0 0.0
2017-Feb-22 11:33N 51°20' E 003°49'0 0.0
2017-Feb-22 10:33N 51°20' E 003°49'0 0.0
2017-Feb-22 09:33N 51°20' E 003°49'5 5.3
2017-Feb-22 08:33N 51°24' E 003°42'3 2.9
2017-Feb-22 07:33N 51°23' E 003°47'1 1.3
2017-Feb-22 06:33N 51°24' E 003°45'0 0.0
2017-Feb-22 05:33N 51°24' E 003°45'0 0.1
2017-Feb-22 04:30N 51°24' E 003°45'0 0.0
2017-Feb-22 03:33N 51°24' E 003°45'0 0.0
2017-Feb-22 02:33N 51°24' E 003°45'0 0.0
2017-Feb-22 01:32N 51°24' E 003°45'0 0.0
2017-Feb-22 00:33N 51°24' E 003°45'0 0.0
2017-Feb-21 23:33N 51°24' E 003°45'0 0.2
2017-Feb-21 22:33N 51°24' E 003°45'4 4.3
2017-Feb-21 21:33N 51°20' E 003°49'0 0.0
2017-Feb-21 20:33N 51°20' E 003°49'0 0.0
2017-Feb-21 19:34N 51°20' E 003°49'0 0.0
2017-Feb-21 18:34N 51°20' E 003°49'0 0.0
2017-Feb-21 17:33N 51°20' E 003°49'0 0.0
2017-Feb-21 16:33N 51°20' E 003°49'0 0.0
2017-Feb-21 15:33N 51°20' E 003°49'0 0.0
2017-Feb-21 14:33N 51°20' E 003°49'0 0.0
2017-Feb-21 13:34N 51°20' E 003°49'0 0.0
2017-Feb-21 12:33N 51°20' E 003°49'0 0.0
2017-Feb-21 11:33N 51°20' E 003°49'0 0.0
2017-Feb-21 10:33N 51°20' E 003°49'0 0.0
2017-Feb-21 09:33N 51°20' E 003°49'0 0.0
2017-Feb-21 08:33N 51°20' E 003°49'0 0.0
2017-Feb-21 07:33N 51°20' E 003°49'0 0.0
2017-Feb-21 06:33N 51°20' E 003°49'0 0.0
2017-Feb-21 05:33N 51°20' E 003°49'1 0.6
2017-Feb-21 04:33N 51°20' E 003°49'4 4.3
2017-Feb-21 03:33N 51°15' E 003°50'6 5.9
2017-Feb-21 02:34N 51°10' E 003°47'1 0.5
2017-Feb-21 01:34N 51°09' E 003°47'0 0.0
2017-Feb-21 00:34N 51°09' E 003°47'0 0.0
2017-Feb-20 23:34N 51°09' E 003°47'0 0.0
2017-Feb-20 22:33N 51°09' E 003°47'0 0.0
2017-Feb-20 21:33N 51°09' E 003°47'0 0.0
2017-Feb-20 20:33N 51°09' E 003°47'0 0.0
2017-Feb-20 19:34N 51°09' E 003°47'5 4.6
2017-Feb-20 18:34N 51°14' E 003°48'6 6.4
2017-Feb-20 17:34N 51°20' E 003°49'3 2.9
2017-Feb-20 16:34N 51°22' E 003°45'7 6.7
2017-Feb-20 15:34N 51°28' E 003°40'0 0.0
2017-Feb-20 14:34N 51°28' E 003°40'0 0.0
2017-Feb-20 13:33N 51°28' E 003°40'0 0.0
2017-Feb-20 12:33N 51°28' E 003°40'0 0.0
2017-Feb-20 11:33N 51°28' E 003°40'0 0.0
2017-Feb-20 10:33N 51°28' E 003°40'0 0.0
2017-Feb-20 09:34N 51°28' E 003°40'0 0.0
2017-Feb-20 08:34N 51°28' E 003°40'0 0.0
2017-Feb-20 07:34N 51°28' E 003°40'0 0.0
2017-Feb-20 06:34N 51°28' E 003°40'0 0.0
2017-Feb-20 05:34N 51°28' E 003°40'0 0.0
2017-Feb-20 04:34N 51°28' E 003°40'0 0.0
2017-Feb-20 03:34N 51°28' E 003°40'0 0.0
2017-Feb-20 02:34N 51°28' E 003°40'0 0.0
2017-Feb-20 01:34N 51°28' E 003°40'0 0.4
2017-Feb-20 00:33N 51°27' E 003°41'0 0.4
2017-Feb-19 23:33N 51°28' E 003°40'0 0.0
2017-Feb-19 22:34N 51°28' E 003°40'0 0.0
2017-Feb-19 21:33N 51°28' E 003°40'0 0.0
2017-Feb-19 20:34N 51°28' E 003°40'0 0.0
2017-Feb-19 19:34N 51°28' E 003°40'0 0.0
2017-Feb-19 18:33N 51°28' E 003°40'0 0.0
2017-Feb-19 17:33N 51°28' E 003°40'0 0.0
2017-Feb-19 16:33N 51°28' E 003°40'0 0.0
2017-Feb-19 15:33N 51°28' E 003°40'0 0.0
2017-Feb-19 14:33N 51°28' E 003°40'1 1.4
2017-Feb-19 13:33N 51°28' E 003°42'1 1.1
2017-Feb-19 12:33N 51°28' E 003°41'1 1.2
2017-Feb-19 11:32N 51°27' E 003°43'2 1.9
2017-Feb-19 10:33N 51°28' E 003°40'0 0.0
2017-Feb-19 09:33N 51°28' E 003°40'0 0.0
2017-Feb-19 08:33N 51°28' E 003°40'0 0.0
2017-Feb-19 07:34N 51°28' E 003°40'0 0.0
2017-Feb-19 06:33N 51°28' E 003°40'0 0.0
2017-Feb-19 05:33N 51°28' E 003°40'0 0.0
2017-Feb-19 04:34N 51°28' E 003°40'0 0.0
2017-Feb-19 03:33N 51°28' E 003°40'0 0.0
2017-Feb-19 02:32N 51°28' E 003°40'0 0.0
2017-Feb-19 01:33N 51°28' E 003°40'0 0.0
2017-Feb-19 00:29N 51°28' E 003°40'0 0.0
2017-Feb-18 23:30N 51°28' E 003°40'0 0.0
2017-Feb-18 22:33N 51°28' E 003°40'0 0.0
2017-Feb-18 21:33N 51°28' E 003°40'0 0.0
2017-Feb-18 20:33N 51°28' E 003°40'0 0.0
2017-Feb-18 19:33N 51°28' E 003°40'0 0.0
2017-Feb-18 18:34N 51°28' E 003°40'0 0.4
2017-Feb-18 17:34N 51°27' E 003°41'0 0.4
2017-Feb-18 16:33N 51°28' E 003°40'0 0.0
2017-Feb-18 15:34N 51°28' E 003°40'0 0.0
2017-Feb-18 14:34N 51°28' E 003°40'0 0.0
2017-Feb-18 13:31N 51°28' E 003°40'0 0.0
2017-Feb-18 12:32N 51°28' E 003°40'0 0.0
2017-Feb-18 11:33N 51°28' E 003°40'0 0.0
2017-Feb-18 10:33N 51°28' E 003°40'0 0.0
2017-Feb-18 09:33N 51°28' E 003°40'0 0.0
2017-Feb-18 08:33N 51°28' E 003°40'0 0.0
2017-Feb-18 07:33N 51°28' E 003°40'0 0.0
2017-Feb-18 06:33N 51°28' E 003°40'0 0.0
2017-Feb-18 05:33N 51°28' E 003°40'0 0.0
2017-Feb-18 04:33N 51°28' E 003°40'0 0.0
2017-Feb-18 03:33N 51°28' E 003°40'  

Dump ship's entire track history